createdAt,value
2018-09-15T00:01:01.704Z,16.20
2018-09-15T00:03:30.191Z,16.10
2018-09-15T00:05:58.667Z,16.00
2018-09-15T00:08:27.358Z,16.00
2018-09-15T00:10:55.846Z,16.00
2018-09-15T00:13:24.368Z,16.10
2018-09-15T00:15:52.860Z,16.10
2018-09-15T00:18:21.300Z,16.00
2018-09-15T00:20:49.769Z,15.80
2018-09-15T00:23:18.271Z,15.60
2018-09-15T00:25:46.732Z,15.70
2018-09-15T00:28:15.259Z,15.60
2018-09-15T00:30:43.715Z,15.60
2018-09-15T00:33:12.199Z,15.60
2018-09-15T00:35:40.663Z,15.70
2018-09-15T00:38:09.136Z,15.80
2018-09-15T00:40:37.605Z,15.70
2018-09-15T00:43:06.347Z,15.70
2018-09-15T00:45:34.794Z,15.60
2018-09-15T00:48:03.266Z,15.60
2018-09-15T00:50:31.732Z,15.60
2018-09-15T00:53:00.507Z,15.50
2018-09-15T00:55:29.228Z,15.50
2018-09-15T00:57:57.696Z,15.50
2018-09-15T01:00:26.533Z,15.50
2018-09-15T01:02:55.042Z,15.50
2018-09-15T01:05:23.547Z,15.50
2018-09-15T01:07:52.017Z,15.60
2018-09-15T01:10:20.502Z,15.60
2018-09-15T01:12:48.964Z,15.70
2018-09-15T01:15:17.412Z,15.50
2018-09-15T01:17:45.871Z,15.40
2018-09-15T01:20:14.392Z,15.40
2018-09-15T01:22:42.836Z,15.40
2018-09-15T01:25:11.281Z,15.40
2018-09-15T01:27:39.789Z,15.30
2018-09-15T01:30:08.281Z,15.30
2018-09-15T01:32:36.987Z,15.30
2018-09-15T01:35:05.468Z,15.10
2018-09-15T01:37:33.932Z,15.10
2018-09-15T01:40:02.413Z,15.10
2018-09-15T01:42:30.840Z,15.30
2018-09-15T01:44:59.333Z,15.30
2018-09-15T01:47:27.821Z,15.40
2018-09-15T01:49:56.592Z,15.40
2018-09-15T01:52:25.127Z,15.10
2018-09-15T01:54:53.900Z,15.10
2018-09-15T01:57:22.640Z,14.80
2018-09-15T01:59:51.115Z,14.80
2018-09-15T02:02:19.671Z,14.70
2018-09-15T02:04:48.184Z,14.70
2018-09-15T02:07:17.010Z,14.70
2018-09-15T02:09:45.466Z,14.70
2018-09-15T02:12:13.897Z,14.70
2018-09-15T02:14:42.374Z,14.90
2018-09-15T02:17:11.079Z,14.90
2018-09-15T02:19:39.564Z,15.00
2018-09-15T02:22:08.283Z,14.80
2018-09-15T02:24:36.792Z,15.00
2018-09-15T02:27:05.269Z,14.70
2018-09-15T02:29:33.995Z,14.50
2018-09-15T02:32:02.436Z,14.30
2018-09-15T02:34:30.886Z,14.30
2018-09-15T02:36:59.619Z,14.10
2018-09-15T02:39:28.368Z,14.20
2018-09-15T02:41:56.787Z,14.10
2018-09-15T02:44:25.506Z,14.10
2018-09-15T02:46:53.939Z,14.10
2018-09-15T02:49:22.382Z,14.00
2018-09-15T02:51:51.490Z,13.90
2018-09-15T02:54:19.949Z,13.90
2018-09-15T02:56:48.377Z,13.90
2018-09-15T02:59:17.395Z,13.90
2018-09-15T03:01:45.820Z,14.10
2018-09-15T03:04:14.241Z,14.20
2018-09-15T03:06:42.658Z,14.00
2018-09-15T03:09:12.628Z,13.90
2018-09-15T03:11:41.316Z,13.80
2018-09-15T03:14:10.103Z,13.60
2018-09-15T03:16:39.283Z,13.70
2018-09-15T03:19:08.000Z,13.70
2018-09-15T03:21:36.463Z,13.60
2018-09-15T03:24:04.868Z,13.50
2018-09-15T03:26:33.803Z,13.50
2018-09-15T03:29:02.280Z,13.40
2018-09-15T03:31:30.763Z,13.40
2018-09-15T03:33:59.198Z,13.30
2018-09-15T03:36:27.963Z,13.20
2018-09-15T03:38:56.371Z,13.50
2018-09-15T03:41:25.246Z,13.30
2018-09-15T03:43:53.630Z,13.40
2018-09-15T03:46:22.354Z,13.20
2018-09-15T03:48:50.788Z,13.00
2018-09-15T03:51:19.235Z,12.80
2018-09-15T03:53:47.663Z,12.80
2018-09-15T03:56:16.163Z,12.70
2018-09-15T03:58:44.619Z,12.70
2018-09-15T04:01:13.266Z,12.80
2018-09-15T04:03:41.928Z,12.70
2018-09-15T04:06:10.605Z,12.70
2018-09-15T04:08:39.028Z,12.70
2018-09-15T04:11:14.237Z,12.50
2018-09-15T04:13:42.676Z,12.50
2018-09-15T04:16:11.147Z,12.60
2018-09-15T04:18:39.600Z,12.90
2018-09-15T04:21:08.088Z,12.90
2018-09-15T04:23:36.501Z,12.70
2018-09-15T04:26:05.040Z,12.60
2018-09-15T04:28:33.555Z,12.60
2018-09-15T04:31:01.943Z,12.90
2018-09-15T04:33:30.468Z,12.80
2018-09-15T04:35:58.886Z,12.50
2018-09-15T04:38:27.320Z,12.30
2018-09-15T04:40:55.742Z,12.10
2018-09-15T04:43:24.166Z,11.80
2018-09-15T04:45:52.887Z,12.00
2018-09-15T04:48:21.311Z,12.20
2018-09-15T04:50:49.765Z,12.20
2018-09-15T04:53:18.478Z,12.10
2018-09-15T04:55:47.398Z,12.00
2018-09-15T04:58:15.843Z,11.80
2018-09-15T05:00:44.307Z,11.70
2018-09-15T05:03:13.080Z,11.60
2018-09-15T05:05:41.512Z,11.50
2018-09-15T05:08:10.012Z,11.60
2018-09-15T05:10:38.424Z,11.80
2018-09-15T05:13:07.409Z,11.90
2018-09-15T05:15:35.868Z,12.00
2018-09-15T05:18:04.313Z,11.60
2018-09-15T05:20:33.077Z,11.50
2018-09-15T05:23:01.756Z,11.50
2018-09-15T05:25:30.171Z,11.40
2018-09-15T05:27:58.652Z,11.40
2018-09-15T05:30:27.087Z,11.30
2018-09-15T05:32:55.772Z,11.40
2018-09-15T05:35:24.198Z,11.30
2018-09-15T05:37:52.659Z,11.30
2018-09-15T05:40:21.138Z,11.20
2018-09-15T05:42:49.887Z,11.30
2018-09-15T05:45:18.315Z,11.60
2018-09-15T05:47:46.796Z,11.80
2018-09-15T05:50:15.595Z,11.80
2018-09-15T05:52:44.024Z,11.80
2018-09-15T05:55:12.521Z,11.70
2018-09-15T05:57:41.004Z,11.50
2018-09-15T06:00:09.516Z,11.70
2018-09-15T06:02:38.069Z,11.70
2018-09-15T06:05:06.837Z,11.80
2018-09-15T06:07:35.295Z,11.90
2018-09-15T06:10:04.068Z,12.00
2018-09-15T06:12:32.803Z,12.30
2018-09-15T06:15:01.277Z,12.50
2018-09-15T06:17:30.015Z,12.60
2018-09-15T06:19:58.497Z,12.60
2018-09-15T06:22:27.001Z,12.70
2018-09-15T06:24:55.473Z,12.60
2018-09-15T06:27:24.244Z,12.70
2018-09-15T06:29:52.742Z,12.70
2018-09-15T06:32:21.199Z,12.80
2018-09-15T06:34:49.699Z,12.90
2018-09-15T06:37:18.123Z,13.20
2018-09-15T06:39:46.583Z,13.30
2018-09-15T06:42:15.583Z,13.50
2018-09-15T06:44:44.052Z,13.50
2018-09-15T06:47:12.532Z,13.70
2018-09-15T06:49:40.968Z,13.60
2018-09-15T06:52:09.551Z,13.70
2018-09-15T06:54:38.044Z,13.90
2018-09-15T06:57:06.522Z,13.80
2018-09-15T06:59:35.019Z,13.90
2018-09-15T07:02:03.504Z,14.00
2018-09-15T07:04:32.291Z,13.90
2018-09-15T07:07:01.019Z,14.10
2018-09-15T07:09:30.220Z,14.20
2018-09-15T07:11:58.896Z,14.40
2018-09-15T07:14:27.638Z,14.40
2018-09-15T07:16:56.331Z,14.40
2018-09-15T07:19:25.061Z,14.50
2018-09-15T07:21:53.528Z,14.70
2018-09-15T07:24:22.313Z,14.80
2018-09-15T07:26:50.789Z,14.70
2018-09-15T07:29:19.231Z,14.60
2018-09-15T07:31:47.688Z,14.50
2018-09-15T07:34:16.726Z,14.50
2018-09-15T07:36:45.511Z,14.60
2018-09-15T07:39:13.985Z,14.70
2018-09-15T07:41:42.480Z,15.10
2018-09-15T07:44:10.900Z,15.30
2018-09-15T07:46:39.645Z,15.50
2018-09-15T07:49:08.674Z,15.90
2018-09-15T07:51:37.128Z,16.10
2018-09-15T07:54:05.833Z,16.20
2018-09-15T07:56:34.296Z,16.50
2018-09-15T07:59:03.046Z,16.50
2018-09-15T08:01:31.543Z,16.60
2018-09-15T08:04:00.286Z,16.90
2018-09-15T08:06:29.307Z,17.20
2018-09-15T08:08:57.739Z,17.40
2018-09-15T08:11:26.491Z,17.60
2018-09-15T08:13:54.890Z,17.80
2018-09-15T08:16:23.352Z,18.00
2018-09-15T08:18:51.767Z,18.20
2018-09-15T08:21:20.211Z,18.30
2018-09-15T08:23:49.063Z,18.30
2018-09-15T08:26:17.943Z,18.60
2018-09-15T08:28:46.368Z,18.60
2018-09-15T08:31:15.131Z,18.70
2018-09-15T08:33:43.887Z,18.90
2018-09-15T08:36:12.646Z,18.90
2018-09-15T08:38:41.516Z,18.90
2018-09-15T08:41:09.989Z,19.00
2018-09-15T08:43:38.439Z,18.80
2018-09-15T08:46:07.221Z,18.60
2018-09-15T08:48:35.728Z,18.50
2018-09-15T08:51:04.168Z,18.40
2018-09-15T08:53:32.624Z,19.10
2018-09-15T08:56:01.158Z,19.40
2018-09-15T08:58:29.575Z,19.60
2018-09-15T09:00:57.996Z,19.80
2018-09-15T09:03:26.679Z,20.40
2018-09-15T09:05:55.086Z,20.10
2018-09-15T09:08:23.607Z,20.50
2018-09-15T09:10:52.266Z,20.50
2018-09-15T09:13:21.357Z,20.70
2018-09-15T09:15:49.964Z,20.90
2018-09-15T09:18:18.409Z,20.90
2018-09-15T09:20:46.839Z,20.50
2018-09-15T09:23:15.598Z,19.40
2018-09-15T09:25:44.313Z,19.60
2018-09-15T09:28:12.788Z,20.20
2018-09-15T09:30:41.232Z,20.30
2018-09-15T09:33:09.812Z,20.00
2018-09-15T09:35:38.573Z,20.20
2018-09-15T09:38:07.136Z,20.20
2018-09-15T09:40:35.778Z,20.20
2018-09-15T09:43:04.244Z,20.70
2018-09-15T09:45:32.750Z,20.60
2018-09-15T09:48:01.366Z,20.90
2018-09-15T09:50:29.796Z,21.30
2018-09-15T09:52:58.844Z,21.50
2018-09-15T09:55:27.319Z,21.60
2018-09-15T09:57:55.779Z,21.70
2018-09-15T10:01:29.239Z,21.80
2018-09-15T10:03:59.327Z,21.70
2018-09-15T10:06:28.169Z,21.80
2018-09-15T10:08:56.922Z,21.70
2018-09-15T10:11:25.463Z,21.80
2018-09-15T10:13:53.936Z,22.30
2018-09-15T10:16:22.884Z,22.80
2018-09-15T10:18:51.352Z,22.90
2018-09-15T10:21:19.917Z,23.10
2018-09-15T10:23:48.379Z,23.20
2018-09-15T10:26:16.877Z,23.10
2018-09-15T10:28:45.374Z,22.90
2018-09-15T10:31:13.918Z,22.30
2018-09-15T10:33:42.661Z,21.70
2018-09-15T10:36:11.420Z,21.40
2018-09-15T10:38:40.057Z,21.70
2018-09-15T10:41:08.926Z,21.60
2018-09-15T10:43:37.440Z,22.00
2018-09-15T10:46:06.013Z,22.10
2018-09-15T10:48:35.051Z,21.90
2018-09-15T10:51:03.764Z,21.70
2018-09-15T10:53:32.464Z,22.20
2018-09-15T10:56:00.985Z,22.70
2018-09-15T10:58:29.995Z,23.30
2018-09-15T11:00:58.892Z,23.40
2018-09-15T11:03:27.648Z,23.00
2018-09-15T11:05:56.185Z,23.20
2018-09-15T11:08:24.662Z,22.90
2018-09-15T11:10:53.895Z,23.00
2018-09-15T11:13:22.683Z,22.80
2018-09-15T11:15:51.099Z,22.20
2018-09-15T11:18:19.847Z,22.50
2018-09-15T11:20:48.632Z,22.40
2018-09-15T11:23:17.370Z,22.50
2018-09-15T11:25:45.843Z,22.00
2018-09-15T11:28:14.489Z,21.80
2018-09-15T11:30:43.279Z,22.30
2018-09-15T11:33:11.782Z,23.00
2018-09-15T11:35:40.652Z,23.00
2018-09-15T11:38:09.089Z,22.80
2018-09-15T11:40:37.625Z,23.00
2018-09-15T11:43:06.142Z,23.20
2018-09-15T11:45:34.620Z,23.30
2018-09-15T11:48:03.256Z,23.70
2018-09-15T11:50:31.608Z,23.30
2018-09-15T11:53:00.371Z,22.70
2018-09-15T11:55:29.166Z,23.30
2018-09-15T11:57:57.640Z,23.90
2018-09-15T12:00:30.245Z,24.00
2018-09-15T12:02:58.727Z,23.60
2018-09-15T12:05:27.175Z,23.20
2018-09-15T12:07:55.698Z,23.60
2018-09-15T12:10:24.144Z,24.10
2018-09-15T12:12:52.672Z,24.30
2018-09-15T12:15:21.111Z,24.30
2018-09-15T12:17:49.605Z,24.00
2018-09-15T12:20:18.290Z,23.90
2018-09-15T12:22:46.780Z,23.60
2018-09-15T12:25:15.284Z,23.60
2018-09-15T12:27:44.466Z,23.50
2018-09-15T12:30:12.957Z,23.30
2018-09-15T12:32:41.446Z,23.10
2018-09-15T12:35:10.140Z,22.70
2018-09-15T12:37:38.925Z,22.50
2018-09-15T12:40:08.232Z,22.00
2018-09-15T12:42:37.008Z,21.90
2018-09-15T12:45:05.589Z,22.40
2018-09-15T12:47:34.008Z,22.70
2018-09-15T12:50:02.456Z,22.50
2018-09-15T12:52:31.066Z,22.40
2018-09-15T12:54:59.507Z,22.60
2018-09-15T12:57:27.965Z,22.90
2018-09-15T12:59:56.769Z,22.80
2018-09-15T13:02:25.236Z,22.60
2018-09-15T13:04:53.679Z,22.60
2018-09-15T13:07:22.647Z,22.60
2018-09-15T13:09:51.433Z,22.80
2018-09-15T13:12:22.856Z,22.90
2018-09-15T13:14:51.566Z,23.00
2018-09-15T13:17:20.010Z,22.50
2018-09-15T13:19:48.455Z,22.50
2018-09-15T13:22:16.883Z,22.50
2018-09-15T13:24:45.342Z,22.50
2018-09-15T13:27:14.066Z,22.50
2018-09-15T13:29:43.037Z,22.50
2018-09-15T13:32:11.936Z,22.60
2018-09-15T13:34:40.431Z,21.90
2018-09-15T13:37:08.879Z,21.60
2018-09-15T13:39:37.340Z,21.90
2018-09-15T13:42:05.842Z,22.30
2018-09-15T13:44:34.297Z,22.40
2018-09-15T13:47:02.743Z,22.30
2018-09-15T13:49:31.256Z,22.50
2018-09-15T13:52:00.176Z,22.40
2018-09-15T13:54:28.715Z,22.60
2018-09-15T13:56:57.180Z,22.20
2018-09-15T13:59:25.983Z,22.00
2018-09-15T14:01:54.506Z,22.20
2018-09-15T14:04:23.484Z,22.80
2018-09-15T14:06:51.912Z,23.00
2018-09-15T14:09:20.648Z,22.90
2018-09-15T14:11:49.392Z,22.40
2018-09-15T14:14:17.846Z,22.50
2018-09-15T14:16:46.970Z,22.40
2018-09-15T14:19:15.940Z,22.40
2018-09-15T14:21:44.396Z,22.20
2018-09-15T14:24:12.828Z,22.30
2018-09-15T14:26:41.285Z,22.40
2018-09-15T14:29:09.750Z,22.20
2018-09-15T14:31:38.560Z,22.10
2018-09-15T14:34:07.007Z,22.10
2018-09-15T14:36:35.757Z,22.50
2018-09-15T14:39:06.180Z,22.30
2018-09-15T14:41:34.966Z,22.10
2018-09-15T14:44:03.458Z,22.20
2018-09-15T14:46:32.426Z,22.00
2018-09-15T14:49:01.156Z,22.00
2018-09-15T14:51:29.634Z,22.00
2018-09-15T14:53:58.063Z,21.90
2018-09-15T14:56:26.602Z,22.10
2018-09-15T14:58:55.403Z,21.80
2018-09-15T15:01:23.879Z,21.90
2018-09-15T15:03:52.603Z,22.10
2018-09-15T15:06:21.451Z,21.80
2018-09-15T15:08:50.034Z,21.80
2018-09-15T15:11:18.511Z,21.70
2018-09-15T15:13:47.035Z,21.60
2018-09-15T15:16:15.471Z,21.40
2018-09-15T15:18:43.909Z,21.40
2018-09-15T15:21:12.420Z,21.80
2018-09-15T15:23:40.860Z,22.00
2018-09-15T15:26:09.431Z,22.00
2018-09-15T15:28:38.506Z,21.90
2018-09-15T15:31:07.254Z,21.80
2018-09-15T15:33:35.737Z,21.60
2018-09-15T15:36:04.255Z,21.70
2018-09-15T15:38:33.007Z,21.60
2018-09-15T15:41:01.502Z,21.50
2018-09-15T15:43:29.989Z,21.50
2018-09-15T15:45:58.416Z,21.40
2018-09-15T15:48:26.881Z,21.30
2018-09-15T15:50:55.599Z,21.30
2018-09-15T15:53:24.355Z,21.40
2018-09-15T15:55:52.817Z,21.50
2018-09-15T15:58:21.338Z,21.60
2018-09-15T16:00:50.003Z,21.40
2018-09-15T16:03:18.810Z,21.50
2018-09-15T16:05:47.296Z,21.40
2018-09-15T16:08:15.782Z,21.30
2018-09-15T16:10:44.297Z,21.20
2018-09-15T16:13:12.822Z,21.10
2018-09-15T16:15:41.257Z,20.80
2018-09-15T16:18:09.748Z,20.90
2018-09-15T16:20:38.504Z,21.20
2018-09-15T16:23:07.025Z,21.20
2018-09-15T16:25:35.881Z,21.20
2018-09-15T16:28:04.436Z,21.00
2018-09-15T16:30:32.914Z,21.00
2018-09-15T16:33:01.383Z,21.00
2018-09-15T16:35:29.841Z,20.90
2018-09-15T16:37:58.301Z,20.80
2018-09-15T16:40:26.788Z,20.80
2018-09-15T16:42:55.243Z,20.90
2018-09-15T16:45:23.716Z,20.90
2018-09-15T16:47:52.191Z,20.90
2018-09-15T16:50:20.639Z,20.70
2018-09-15T16:52:55.776Z,20.60
2018-09-15T16:55:24.555Z,20.70
2018-09-15T16:57:53.049Z,20.80
2018-09-15T17:00:21.787Z,20.70
2018-09-15T17:02:50.260Z,20.50
2018-09-15T17:05:18.739Z,20.50
2018-09-15T17:07:47.227Z,20.50
2018-09-15T17:10:16.068Z,20.40
2018-09-15T17:12:44.495Z,20.30
2018-09-15T17:15:12.987Z,20.10
2018-09-15T17:17:41.471Z,20.00
2018-09-15T17:20:10.008Z,19.90
2018-09-15T17:22:38.450Z,20.00
2018-09-15T17:25:07.021Z,19.90
2018-09-15T17:27:35.451Z,19.90
2018-09-15T17:30:10.395Z,19.80
2018-09-15T17:32:39.205Z,19.70
2018-09-15T17:35:07.749Z,19.70
2018-09-15T17:37:36.179Z,19.70
2018-09-15T17:40:04.752Z,19.60
2018-09-15T17:42:33.195Z,19.60
2018-09-15T17:45:01.991Z,19.60
2018-09-15T17:47:30.757Z,19.50
2018-09-15T17:49:59.241Z,19.40
2018-09-15T17:52:27.676Z,19.40
2018-09-15T17:54:56.157Z,19.30
2018-09-15T17:57:24.796Z,19.20
2018-09-15T17:59:53.554Z,19.20
2018-09-15T18:02:21.989Z,19.20
2018-09-15T18:04:50.443Z,19.10
2018-09-15T18:07:18.952Z,18.80
2018-09-15T18:09:47.844Z,18.70
2018-09-15T18:12:16.218Z,18.70
2018-09-15T18:14:44.706Z,18.50
2018-09-15T18:17:13.415Z,18.50
2018-09-15T18:19:41.884Z,18.40
2018-09-15T18:22:10.400Z,18.30
2018-09-15T18:24:38.820Z,18.30
2018-09-15T18:27:07.283Z,18.10
2018-09-15T18:29:35.744Z,18.10
2018-09-15T18:32:04.480Z,18.00
2018-09-15T18:34:32.982Z,17.90
2018-09-15T18:37:01.800Z,17.80
2018-09-15T18:39:30.199Z,17.70
2018-09-15T18:41:58.635Z,17.70
2018-09-15T18:44:27.355Z,17.70
2018-09-15T18:46:55.776Z,17.60
2018-09-15T18:49:24.206Z,17.60
2018-09-15T18:51:52.656Z,17.50
2018-09-15T18:54:21.468Z,17.50
2018-09-15T18:56:49.913Z,17.80
2018-09-15T18:59:18.839Z,17.60
2018-09-15T19:01:47.528Z,17.50
2018-09-15T19:04:16.552Z,17.40
2018-09-15T19:06:44.999Z,17.20
2018-09-15T19:09:13.735Z,17.20
2018-09-15T19:11:42.296Z,17.10
2018-09-15T19:14:10.822Z,17.20
2018-09-15T19:16:39.219Z,17.00
2018-09-15T19:19:07.648Z,17.00
2018-09-15T19:21:36.352Z,17.00
2018-09-15T19:24:05.040Z,16.80
2018-09-15T19:26:33.553Z,16.70
2018-09-15T19:29:02.012Z,16.50
2018-09-15T19:31:30.481Z,16.10
2018-09-15T19:33:58.928Z,16.10
2018-09-15T19:36:27.392Z,16.10
2018-09-15T19:38:55.884Z,15.90
2018-09-15T19:41:24.346Z,16.10
2018-09-15T19:43:53.038Z,16.00
2018-09-15T19:46:21.528Z,16.20
2018-09-15T19:48:50.345Z,16.40
2018-09-15T19:51:19.139Z,16.50
2018-09-15T19:53:47.987Z,16.30
2018-09-15T19:56:16.482Z,16.10
2018-09-15T19:58:44.970Z,15.90
2018-09-15T20:01:13.659Z,15.80
2018-09-15T20:03:42.124Z,15.40
2018-09-15T20:06:10.673Z,15.00
2018-09-15T20:08:39.053Z,15.10
2018-09-15T20:11:07.780Z,15.10
2018-09-15T20:13:36.269Z,15.20
2018-09-15T20:16:03.592Z,15.10
2018-09-15T20:18:30.943Z,14.90
2018-09-15T20:20:58.298Z,14.80
2018-09-15T20:23:28.118Z,14.90
2018-09-15T20:25:56.803Z,15.00
2018-09-15T20:28:25.591Z,15.00
2018-09-15T20:30:54.275Z,15.00
2018-09-15T20:33:22.737Z,14.80
2018-09-15T20:35:51.480Z,15.10
2018-09-15T20:38:20.520Z,15.30
2018-09-15T20:40:48.942Z,15.20
2018-09-15T20:43:17.655Z,15.20
2018-09-15T20:45:46.114Z,15.00
2018-09-15T20:48:14.569Z,14.70
2018-09-15T20:50:43.051Z,14.60
2018-09-15T20:53:11.522Z,14.40
2018-09-15T20:55:40.182Z,14.40
2018-09-15T20:58:08.609Z,14.50
2018-09-15T21:00:37.173Z,14.30
2018-09-15T21:03:05.624Z,14.40
2018-09-15T21:05:34.078Z,14.30
2018-09-15T21:08:02.517Z,14.20
2018-09-15T21:10:30.968Z,14.30
2018-09-15T21:12:59.441Z,14.50
2018-09-15T21:15:28.116Z,14.50
2018-09-15T21:17:56.894Z,14.40
2018-09-15T21:20:25.582Z,14.20
2018-09-15T21:22:54.254Z,14.20
2018-09-15T21:25:22.811Z,14.20
2018-09-15T21:27:51.231Z,14.10
2018-09-15T21:30:19.703Z,14.10
2018-09-15T21:32:48.126Z,14.20
2018-09-15T21:35:16.644Z,14.10
2018-09-15T21:37:45.573Z,14.30
2018-09-15T21:40:14.226Z,14.20
2018-09-15T21:42:42.633Z,14.20
2018-09-15T21:45:11.058Z,14.10
2018-09-15T21:47:39.465Z,14.10
2018-09-15T21:50:08.204Z,14.00
2018-09-15T21:52:36.978Z,14.10
2018-09-15T21:55:06.289Z,14.00
2018-09-15T21:57:34.715Z,14.00
2018-09-15T22:00:03.691Z,13.90
2018-09-15T22:02:32.960Z,13.80
2018-09-15T22:05:01.791Z,13.90
2018-09-15T22:07:30.258Z,13.90
2018-09-15T22:09:58.711Z,13.90
2018-09-15T22:12:27.149Z,14.00
2018-09-15T22:14:55.591Z,14.10
2018-09-15T22:17:24.006Z,14.30
2018-09-15T22:19:52.699Z,14.10
2018-09-15T22:22:21.210Z,14.00
2018-09-15T22:24:49.917Z,13.70
2018-09-15T22:27:18.334Z,13.40
2018-09-15T22:29:47.092Z,13.40
2018-09-15T22:32:15.794Z,13.60
2018-09-15T22:34:44.262Z,13.80
2018-09-15T22:37:12.711Z,14.00
2018-09-15T22:39:41.466Z,13.60
2018-09-15T22:42:09.882Z,13.50
2018-09-15T22:44:38.595Z,13.50
2018-09-15T22:47:07.340Z,13.50
2018-09-15T22:49:36.012Z,13.70
2018-09-15T22:52:04.469Z,13.50
2018-09-15T22:54:33.230Z,13.30
2018-09-15T22:57:01.928Z,13.40
2018-09-15T22:59:30.342Z,13.30
2018-09-15T23:01:59.048Z,13.10
2018-09-15T23:04:27.755Z,13.10
2018-09-15T23:06:56.538Z,13.10
2018-09-15T23:09:25.043Z,13.00
2018-09-15T23:11:53.503Z,13.30
2018-09-15T23:14:22.218Z,13.20
2018-09-15T23:16:50.667Z,13.10
2018-09-15T23:19:19.084Z,12.80
2018-09-15T23:21:47.771Z,12.80
2018-09-15T23:24:16.758Z,12.80
2018-09-15T23:26:45.793Z,12.80
2018-09-15T23:29:14.242Z,12.80
2018-09-15T23:31:42.984Z,12.80
2018-09-15T23:34:11.475Z,12.50
2018-09-15T23:36:39.892Z,12.40
2018-09-15T23:39:08.886Z,12.60
2018-09-15T23:41:37.718Z,12.50
2018-09-15T23:44:06.185Z,12.50
2018-09-15T23:46:34.614Z,12.50
2018-09-15T23:49:03.102Z,12.40
2018-09-15T23:51:31.764Z,12.40
2018-09-15T23:54:00.470Z,12.30
2018-09-15T23:56:28.917Z,12.30
2018-09-15T23:58:57.600Z,12.40
